logo tempoitalia

Diretta Meteo Birjand, Iranlunedì 31 agosto ore 08:30

Mappa
Sereno 28 °C Sereno 24 Ore: T.min 22 T.max 34
Ponente Nord-Est Km/h 37 Punto di rugiada: 9 °C Umidità: 30% Visibilità: 9 Km
Il sole sorge alle: 05:07 Il sole tramonta alle: 18:00
31 Agosto 2026 08:30 tempo osservato: Sereno Sereno 28 30 1016 vento: Nord NE 37
31 Agosto 2026 07:30 tempo osservato: Sereno Sereno 26 36 1017 vento: Nord E/NE 29.6
31 Agosto 2026 06:30 tempo osservato: Sereno Sereno 24 41 1017 vento: Nord E/NE 14.8
31 Agosto 2026 05:30 tempo osservato: Sereno Sereno 23 38 1016 vento: Nord E/NE 11.1
31 Agosto 2026 04:30 tempo osservato: Sereno Sereno 22 37 1016 vento: Nord E/NE 22.2
31 Agosto 2026 03:30 tempo osservato: Sereno Sereno 23 33 1016 vento: Nord E/NE 7.4
31 Agosto 2026 02:30 tempo osservato: Sereno Sereno 24 31 1016 vento: Nord E 14.8
31 Agosto 2026 01:30 tempo osservato: Sereno Sereno 24 33 1016 vento: Nord E 18.5
31 Agosto 2026 00:30 tempo osservato: Sereno Sereno 25 29 1016 vento: Nord E 16.7
30 Agosto 2026 23:30 tempo osservato: Sereno Sereno 25 31 1017 vento: Nord E/NE 22.2
30 Agosto 2026 22:30 tempo osservato: Sereno Sereno 26 29 1017 vento: Nord E 14.8
30 Agosto 2026 21:30 tempo osservato: Sereno Sereno 26 27 1017 vento: Nord E/NE 18.5
30 Agosto 2026 20:30 tempo osservato: Sereno Sereno 26 24 1017 vento: Nord E/NE 11.1
30 Agosto 2026 19:30 tempo osservato: Sereno Sereno 28 21 1016 vento: Nord E/NE 20.3
30 Agosto 2026 18:30 tempo osservato: Sereno Sereno 29 17 1016 vento: Nord NE 25.9
30 Agosto 2026 17:30 tempo osservato: Poco Nuvoloso Poco Nuvoloso 31 15 1015 vento: Nord NE 33.3
30 Agosto 2026 16:30 tempo osservato: Poco Nuvoloso Poco Nuvoloso 32 14 1015 vento: Nord NE 31.5
30 Agosto 2026 15:30 tempo osservato: Sereno Sereno 34 11 1015 vento: Nord NE 31.5
30 Agosto 2026 14:30 tempo osservato: Sereno Sereno 33 12 1015 vento: Nord E/NE 25.9
30 Agosto 2026 13:30 tempo osservato: Sereno Sereno 34 11 1015 vento: Nord E/NE 35.2
30 Agosto 2026 12:30 tempo osservato: Sereno Sereno 33 13 1015 vento: Nord E/NE 37
30 Agosto 2026 11:30 tempo osservato: Sereno Sereno 32 14 1016 vento: Nord E/NE 40.7
30 Agosto 2026 10:30 tempo osservato: Sereno Sereno 31 15 1016 vento: Nord E/NE 44.4
30 Agosto 2026 09:30 tempo osservato: Sereno Sereno 30 17 1017 vento: Nord E/NE 40.7